Latest Weather Observations for Gayndah

IDQ60801

Issued at 4:02 pm EST Sunday 1 May 2016 (issued every 30 minutes, with the page automatically refreshed every 10 minutes)

About weather observations | Map of weather stations | Latest weather observations for QLD | Other Formats
Station Details ID: 039066 Name: GAYNDAH AIRPORT Lat: -25.62 Lon: 151.62 Height: 110.9 m
Data from the previous 72 hours. | See also: Recent months at Gayndah
Date/Time
EST
Temp
°C
App
Temp
°C
Dew
Point
Rel
Hum
%
Delta-T
°C
Wind Press
QNH
hPa
Press
MSL
hPa
Rain
since 9 am
mm
Dir
 
Spd
km/h
Gust
km/h
Spd
kts
Gust
kts
01/04:00pm 29.7 30.7 16.8 45 8.1 W 7 11 4 6 1015.0 1014.7 0.0
01/03:30pm 29.5 30.8 17.0 47 7.9 W 6 7 3 4 1014.7 1014.4 0.0
01/03:00pm 29.8 31.4 16.9 45 8.1 WSW 4 9 2 5 1014.6 1014.3 0.0
01/02:30pm 29.3 30.6 17.2 48 7.7 W 6 11 3 6 1014.5 1014.2 0.0
01/02:00pm 29.6 31.3 18.1 50 7.4 ESE 6 9 3 5 1014.7 1014.4 0.0
01/01:30pm 28.8 30.5 18.0 52 6.9 WSW 6 15 3 8 1015.0 1014.7 0.0
01/01:00pm 28.4 30.7 18.5 55 6.4 WNW 4 11 2 6 1015.7 1015.4 0.0
01/12:30pm 26.8 28.5 18.4 60 5.4 NW 7 17 4 9 1016.0 1015.7 0.0
01/12:00pm 26.6 27.9 18.5 61 5.2 W 9 20 5 11 1016.7 1016.4 0.0
01/11:30am 25.2 26.2 18.6 67 4.2 WNW 11 17 6 9 1017.4 1017.2 0.0
01/11:00am 24.5 26.0 18.9 71 3.6 WSW 9 13 5 7 1018.0 1017.8 0.0
01/10:30am 23.9 25.8 19.0 74 3.1 WNW 7 13 4 7 1018.5 1018.3 0.0
01/10:00am 23.6 24.8 19.1 76 2.9 WSW 11 15 6 8 1018.9 1018.7 0.0
01/09:30am 23.1 25.9 20.4 85 1.8 SW 6 7 3 4 1019.2 1018.8 0.0
01/09:00am 22.1 24.6 19.8 87 1.5 SW 6 9 3 5 1019.3 1018.9 0.0
01/08:30am 22.1 24.8 20.2 89 1.2 WSW 6 7 3 4 1019.1 1018.7 0.0
01/08:00am 21.8 24.1 19.9 89 1.2 SW 7 11 4 6 1019.1 1018.7 0.0
01/07:30am 22.0 24.4 19.7 87 1.5 WSW 6 11 3 6 1018.9 1018.5 0.0
01/07:00am 21.7 24.6 19.8 89 1.2 WSW 4 4 2 2 1018.6 1018.2 0.0
01/06:30am 21.5 23.9 19.6 89 1.2 SW 6 9 3 5 1018.3 1017.9 0.0
01/06:00am 21.6 24.0 19.7 89 1.2 WSW 6 7 3 4 1017.9 1017.5 0.0
01/05:30am 21.7 24.5 19.6 88 1.3 W 4 6 2 3 1017.7 1017.3 0.0
01/05:00am 21.7 25.1 19.4 87 1.5 CALM 0 4 0 2 1017.6 1017.2 0.0
01/04:30am 21.7 25.1 19.4 87 1.5 CALM 0 0 0 0 1017.3 1016.9 0.0
01/04:00am 22.1 25.1 19.3 84 1.8 SE 2 6 1 3 1017.3 1016.9 0.0
01/03:30am 22.2 25.5 19.2 83 1.9 CALM 0 6 0 3 1017.3 1016.9 0.0
01/03:00am 22.3 25.3 19.3 83 1.9 E 2 6 1 3 1017.3 1016.9 0.0
01/02:30am 22.3 25.6 19.1 82 2.0 CALM 0 0 0 0 1017.5 1017.1 0.0
01/02:00am 22.5 25.3 18.9 80 2.3 SSE 2 6 1 3 1017.7 1017.3 0.0
01/01:30am 22.4 25.0 19.2 82 2.0 E 4 6 2 3 1018.1 1017.7 0.0
01/01:00am 22.1 24.9 18.9 82 2.0 ENE 2 4 1 2 1018.4 1018.0 0.0
01/12:30am 21.9 24.3 18.9 83 1.9 N 4 4 2 2 1018.5 1018.1 0.0
01/12:00am 22.4 25.2 18.8 80 2.3 ENE 2 6 1 3 1018.6 1018.2 0.0
 
Date/Time
EST
Temp
°C
App
Temp
°C
Dew
Point
Rel
Hum
%
Delta-T
°C
Wind Press
QNH
hPa
Press
MSL
hPa
Rain
since 9 am
mm
Dir
 
Spd
km/h
Gust
km/h
Spd
kts
Gust
kts
30/11:30pm 22.6 24.7 19.0 80 2.3 ENE 6 7 3 4 1018.8 1018.4 0.0
30/11:00pm 22.4 24.5 19.0 81 2.2 ESE 6 9 3 5 1019.1 1018.7 0.0
30/10:30pm 22.4 23.9 18.8 80 2.3 ESE 9 11 5 6 1019.3 1018.9 0.0
30/10:00pm 22.4 24.3 19.0 81 2.2 E 7 13 4 7 1019.4 1019.0 0.0
30/09:30pm 22.1 24.6 19.1 83 1.9 E 4 9 2 5 1019.4 1019.0 0.0
30/09:00pm 21.7 23.9 18.3 81 2.1 NE 4 4 2 2 1019.3 1018.9 0.0
30/08:30pm 22.3 24.6 18.5 79 2.4 NE 4 6 2 3 1019.3 1018.9 0.0
30/08:00pm 23.1 25.4 18.6 76 2.8 ENE 4 6 2 3 1019.0 1018.6 0.0
30/07:30pm 23.8 25.3 18.9 74 3.1 ESE 9 13 5 7 1018.7 1018.3 0.0
30/07:00pm 24.4 25.5 18.8 71 3.6 E 11 19 6 10 1018.3 1017.9 0.0
30/06:30pm 25.2 25.6 18.9 68 4.0 E 15 22 8 12 1017.9 1017.5 0.0
30/06:00pm 25.9 26.2 18.8 65 4.5 E 15 24 8 13 1017.6 1017.2 0.0
30/05:30pm 26.8 26.9 18.4 60 5.4 E 15 20 8 11 1017.1 1016.6 0.0
30/05:00pm 28.4 28.1 18.2 54 6.5 E 17 24 9 13 1016.7 1016.2 0.0
30/04:30pm 29.6 29.4 16.8 46 8.1 E 13 17 7 9 1016.3 1015.8 0.0
30/04:00pm 30.6 31.7 17.0 44 8.6 ESE 7 15 4 8 1015.9 1015.4 0.0
30/03:30pm 30.7 31.1 16.3 42 9.0 E 9 15 5 8 1015.9 1015.4 0.0
30/03:00pm 30.6 30.5 17.0 44 8.6 ENE 13 22 7 12 1016.1 1015.6 0.0
30/02:30pm 30.1 30.7 16.9 45 8.3 ESE 9 17 5 9 1016.5 1016.0 0.0
30/02:00pm 31.0 31.4 17.3 43 8.7 NNE 11 20 6 11 1016.6 1016.1 0.0
30/01:30pm 30.1 31.0 17.5 46 8.0 ENE 9 20 5 11 1016.9 1016.4 0.0
30/01:00pm 29.1 29.5 17.3 49 7.5 NE 11 17 6 9 1017.6 1017.2 0.0
30/12:30pm 27.7 28.9 19.0 59 5.6 ESE 11 17 6 9 1018.2 1017.8 0.0
30/12:00pm 28.0 29.5 19.0 58 5.8 E 9 17 5 9 1018.8 1018.4 0.0
30/11:30am 27.2 28.7 19.0 61 5.3 E 9 17 5 9 1019.5 1019.1 0.0
30/11:00am 26.1 26.4 18.8 64 4.7 ENE 15 22 8 12 1020.1 1019.7 0.0
30/10:30am 26.5 27.2 18.9 63 4.9 E 13 20 7 11 1020.5 1020.1 0.0
30/10:00am 26.1 27.3 19.0 65 4.6 E 11 17 6 9 1020.7 1020.3 0.0
30/09:30am 25.6 26.7 18.8 66 4.4 ENE 11 20 6 11 1021.0 1020.6 0.0
30/09:00am 24.7 26.8 18.9 70 3.7 NE 6 9 3 5 1021.1 1020.7 -
30/08:30am 22.9 26.1 18.9 78 2.5 CALM 0 0 0 0 1021.1 1020.7 -
30/08:00am 21.1 24.1 18.5 85 1.6 CALM 0 0 0 0 1021.1 1020.7 -
30/07:30am 18.9 21.7 17.9 94 0.6 CALM 0 0 0 0 1021.0 1020.6 -
30/07:00am 17.4 19.6 16.4 94 0.6 CALM 0 0 0 0 1020.6 1020.2 -
30/06:30am 17.1 19.1 16.1 94 0.6 CALM 0 0 0 0 1020.3 1019.9 -
30/06:00am 17.1 19.2 16.3 95 0.5 CALM 0 0 0 0 1020.2 1019.8 -
30/05:30am 17.1 19.1 16.1 94 0.6 CALM 0 0 0 0 1019.8 1019.4 -
30/05:00am 17.0 19.0 15.9 93 0.6 CALM 0 0 0 0 1019.7 1019.3 -
30/04:30am 17.5 19.7 16.5 94 0.6 CALM 0 0 0 0 1019.5 1019.1 -
30/04:00am 17.7 19.9 16.6 93 0.7 CALM 0 0 0 0 1019.4 1019.0 -
30/03:30am 17.7 19.8 16.2 91 0.9 CALM 0 0 0 0 1019.5 1019.1 -
30/03:00am 18.0 20.3 16.7 92 0.8 CALM 0 0 0 0 1019.6 1019.2 0.0
30/02:30am 18.0 20.1 16.3 90 1.0 CALM 0 0 0 0 1019.8 1019.4 -
30/02:00am 18.3 19.9 17.0 92 0.8 SW 4 6 2 3 1020.1 1019.7 -
30/01:30am 18.5 20.8 16.8 90 1.0 CALM 0 0 0 0 1020.4 1020.0 -
30/01:00am 18.8 21.2 16.9 89 1.1 CALM 0 0 0 0 1020.5 1020.1 -
30/12:30am 18.9 21.3 16.9 88 1.2 CALM 0 0 0 0 1020.8 1020.4 -
30/12:00am 19.3 21.4 16.3 83 1.8 CALM 0 0 0 0 1021.1 1020.7 -
 
Date/Time
EST
Temp
°C
App
Temp
°C
Dew
Point
Rel
Hum
%
Delta-T
°C
Wind Press
QNH
hPa
Press
MSL
hPa
Rain
since 9 am
mm
Dir
 
Spd
km/h
Gust
km/h
Spd
kts
Gust
kts
29/11:30pm 20.0 21.8 17.4 85 1.6 W 4 6 2 3 1021.4 1021.0 -
29/11:00pm 20.3 22.7 17.1 82 2.0 CALM 0 0 0 0 1021.6 1021.2 -
29/10:30pm 20.7 23.2 17.3 81 2.1 CALM 0 0 0 0 1021.6 1021.2 -
29/10:00pm 20.5 22.3 17.3 82 2.0 NNE 4 4 2 2 1021.5 1021.1 -
29/09:30pm 20.7 22.4 17.1 80 2.2 NE 4 4 2 2 1021.4 1021.0 -
29/09:00pm 21.1 22.2 17.1 78 2.4 ENE 7 7 4 4 1021.4 1021.0 -
29/08:30pm 21.4 22.7 17.0 76 2.7 ENE 6 7 3 4 1021.2 1020.8 -
29/08:00pm 22.4 23.1 17.1 72 3.3 E 9 11 5 6 1020.9 1020.5 -
29/07:30pm 23.0 23.7 17.0 69 3.7 E 9 11 5 6 1020.6 1020.2 -
29/07:00pm 23.7 23.6 17.0 66 4.1 E 13 17 7 9 1020.2 1019.8 -
29/06:30pm 24.3 24.5 16.8 63 4.6 E 11 13 6 7 1019.8 1019.4 -
29/06:00pm 25.0 25.3 17.0 61 5.0 E 11 15 6 8 1019.3 1018.9 -
29/05:30pm 25.8 26.1 16.9 58 5.5 E 11 15 6 8 1019.1 1018.7 -
29/05:00pm 27.0 25.6 16.6 53 6.5 E 19 24 10 13 1018.6 1018.2 -
29/04:30pm 27.8 27.2 16.7 50 6.9 ENE 15 19 8 10 1018.1 1017.7 0.0
29/04:00pm 27.6 27.0 16.6 51 6.9 E 15 20 8 11 1018.1 1017.7 0.0
29/03:30pm 28.2 26.7 16.8 50 7.1 ENE 20 28 11 15 1018.0 1017.6 0.0
29/03:00pm 28.3 27.7 17.5 52 6.8 ESE 17 26 9 14 1018.0 1017.6 0.0
29/02:30pm 27.1 25.9 17.0 54 6.3 E 19 24 10 13 1018.2 1017.8 0.0
29/02:00pm 28.6 27.8 17.2 50 7.2 ENE 17 24 9 13 1018.2 1017.8 0.0
29/01:30pm 27.7 26.9 18.1 56 6.1 E 19 24 10 13 1018.6 1018.2 0.0
29/01:00pm 27.3 27.8 17.5 55 6.2 ENE 11 17 6 9 1018.9 1018.5 0.0
29/12:30pm 26.9 27.1 17.7 57 5.8 E 13 20 7 11 1019.5 1019.1 0.0
29/12:00pm 26.8 27.0 17.6 57 5.8 ENE 13 20 7 11 1020.0 1019.6 0.0
29/11:30am 26.3 25.7 17.6 58 5.5 E 17 24 9 13 1020.8 1020.4 0.0
29/11:00am 25.7 25.7 18.1 63 4.8 E 15 20 8 11 1021.6 1021.2 0.0
29/10:30am 24.8 25.8 18.7 69 3.9 ESE 11 17 6 9 1022.2 1021.8 0.0
29/10:00am 24.3 24.6 18.0 68 4.0 E 13 19 7 10 1022.6 1022.2 0.0
29/09:30am 24.3 24.3 18.0 68 4.0 E 15 22 8 12 1022.8 1022.4 0.0
29/09:00am 23.8 23.8 18.2 71 3.5 ESE 15 20 8 11 1022.7 1022.3 0.0
29/08:30am 23.6 25.0 17.8 70 3.6 E 7 11 4 6 1022.7 1022.3 0.0
29/08:00am 21.2 23.8 17.4 79 2.3 CALM 0 4 0 2 1022.4 1022.0 0.0
29/07:30am 19.1 21.5 17.1 88 1.2 CALM 0 0 0 0 1022.3 1021.9 0.0
29/07:00am 17.8 19.9 16.3 91 0.9 CALM 0 0 0 0 1021.9 1021.5 0.0
29/06:30am 15.8 17.4 14.8 94 0.6 CALM 0 0 0 0 1021.7 1021.3 0.0
29/06:00am 15.8 17.2 14.5 92 0.7 CALM 0 2 0 1 1021.7 1021.3 0.0
29/05:30am 16.4 18.1 15.1 92 0.8 CALM 0 2 0 1 1021.3 1020.9 0.0
29/05:00am 16.5 17.4 15.0 91 0.9 WSW 4 6 2 3 1021.4 1021.0 0.0
29/04:30am 16.9 17.4 15.6 92 0.8 W 7 9 4 5 1021.2 1020.8 0.0
29/04:00am 16.7 18.4 15.1 90 0.9 CALM 0 0 0 0 1020.9 1020.5 0.0
29/03:30am 16.6 17.6 15.3 92 0.8 SW 4 4 2 2 1021.1 1020.7 0.0
29/03:00am 16.8 17.9 15.5 92 0.8 WSW 4 6 2 3 1021.1 1020.7 0.0
29/02:30am 16.4 16.7 14.4 88 1.1 S 6 9 3 5 1021.1 1020.7 0.0
29/02:00am 17.0 18.4 15.3 90 1.0 SSW 2 6 1 3 1021.5 1021.1 0.0
29/01:30am 16.9 17.8 15.2 90 1.0 SSW 4 6 2 3 1022.0 1021.6 0.0
29/01:00am 17.8 19.5 15.1 84 1.6 CALM 0 0 0 0 1022.0 1021.6 0.0
29/12:30am 17.9 19.6 15.2 84 1.6 CALM 0 0 0 0 1021.9 1021.5 0.0
29/12:00am 18.6 20.5 15.8 84 1.7 CALM 0 0 0 0 1022.0 1021.6 0.0
 
Date/Time
EST
Temp
°C
App
Temp
°C
Dew
Point
Rel
Hum
%
Delta-T
°C
Wind Press
QNH
hPa
Press
MSL
hPa
Rain
since 9 am
mm
Dir
 
Spd
km/h
Gust
km/h
Spd
kts
Gust
kts
28/11:30pm 18.8 20.7 15.7 82 1.8 CALM 0 2 0 1 1022.0 1021.6 0.0
28/11:00pm 20.3 21.4 16.5 79 2.3 ESE 6 7 3 4 1022.4 1022.0 0.0
28/10:30pm 20.3 21.1 16.3 78 2.4 E 7 11 4 6 1022.5 1022.1 0.0
28/10:00pm 20.8 21.7 16.2 75 2.8 E 6 7 3 4 1022.6 1022.2 0.0
28/09:30pm 21.0 21.7 16.2 74 2.9 E 7 11 4 6 1022.5 1022.1 0.0
28/09:00pm 21.3 22.0 16.0 72 3.2 E 7 11 4 6 1022.5 1022.1 0.0
28/08:30pm 21.6 22.0 16.3 72 3.2 E 9 13 5 7 1022.2 1021.8 0.0
28/08:00pm 21.7 22.1 16.2 71 3.3 E 9 9 5 5 1022.1 1021.7 0.0
28/07:30pm 22.6 22.7 16.6 69 3.7 E 11 15 6 8 1021.8 1021.4 0.0
28/07:00pm 22.7 22.7 16.3 67 3.9 E 11 15 6 8 1021.6 1021.2 0.0
28/06:30pm 22.7 23.0 15.0 61 4.6 E 7 11 4 6 1021.3 1020.9 0.0
28/06:00pm 24.0 23.2 15.2 58 5.3 E 13 17 7 9 1020.8 1020.4 0.0
28/05:30pm 24.9 23.2 15.8 57 5.6 E 19 26 10 14 1020.5 1020.1 0.0
28/05:00pm 25.9 24.7 15.0 51 6.6 E 15 22 8 12 1020.2 1019.8 0.0
28/04:30pm 26.8 25.0 14.5 46 7.4 ESE 17 24 9 13 1019.8 1019.4 0.0

Other Formats:

Comma delimited format used in spreadsheet applications
http://www.bom.gov.au/fwo/IDQ60801/IDQ60801.95543.axf

JavaScript Object Notation format (JSON) in row-major order
http://www.bom.gov.au/fwo/IDQ60801/IDQ60801.95543.json